Time;durP1;ratioP1;P1;durP2;ratioP2;P2;SDS_P1;SDS_P2;PMS_P1;PMS_P2;Temp;Humidity;BMP_temperature;BMP_pressure;BME280_temperature;BME280_humidity;BME280_pressure;Samples;Min_cycle;Max_cycle;Signal;HPM_P1;HPM_P2
2023/01/18 00:01:18;;;;;;;90.85;44.90;;;;;;;0.14;100.00;98172.11;1704877;84;25399;-38
2023/01/18 00:03:45;;;;;;;84.17;42.62;;;;;;;0.14;100.00;98166.80;1704885;84;25696;-38
2023/01/18 00:06:16;;;;;;;92.37;44.05;;;;;;;0.16;100.00;98155.32;1704913;84;25432;-38
2023/01/18 00:08:44;;;;;;;81.40;41.15;;;;;;;0.19;100.00;98164.05;1704947;84;27332;-39
2023/01/18 00:11:17;;;;;;;80.80;42.23;;;;;;;0.20;100.00;98160.29;1704100;84;25703;-38
2023/01/18 00:13:47;;;;;;;85.10;42.25;;;;;;;0.22;100.00;98158.13;1704646;84;25571;-38
2023/01/18 00:16:19;;;;;;;84.15;43.30;;;;;;;0.23;100.00;98153.06;1704966;84;32355;-39
2023/01/18 00:18:59;;;;;;;84.65;45.43;;;;;;;0.26;100.00;98153.03;1704973;84;25415;-39
2023/01/18 00:21:27;;;;;;;86.37;42.00;;;;;;;0.27;100.00;98150.60;1704908;84;27335;-38
2023/01/18 00:23:56;;;;;;;84.65;44.55;;;;;;;0.27;100.00;98150.60;1704826;84;25426;-38
2023/01/18 00:26:25;;;;;;;86.15;44.03;;;;;;;0.28;100.00;98151.64;1704880;84;25172;-38
2023/01/18 00:28:51;;;;;;;83.92;43.00;;;;;;;0.29;100.00;98149.24;1705020;84;26448;-40
2023/01/18 00:31:21;;;;;;;93.10;43.78;;;;;;;0.30;100.00;98146.81;1677032;84;25474;-39
2023/01/18 00:33:50;;;;;;;83.65;42.27;;;;;;;0.32;100.00;98146.00;1704874;84;28045;-39
2023/01/18 00:36:20;;;;;;;91.05;42.48;;;;;;;0.32;100.00;98139.36;1704767;84;25638;-40
2023/01/18 00:38:52;;;;;;;91.97;43.87;;;;;;;0.33;100.00;98140.91;1707267;83;25558;-39
2023/01/18 00:41:21;;;;;;;80.47;41.10;;;;;;;0.34;100.00;98137.19;1712772;83;26378;-40
2023/01/18 00:43:52;;;;;;;84.55;41.73;;;;;;;0.37;100.00;98141.11;1712846;83;25575;-39
2023/01/18 00:46:26;;;;;;;87.50;44.08;;;;;;;0.38;100.00;98135.27;1712816;83;27527;-38
2023/01/18 00:48:57;;;;;;;81.05;40.20;;;;;;;0.41;100.00;98138.65;1712646;83;25624;-39
2023/01/18 00:51:27;;;;;;;83.82;40.33;;;;;;;0.42;100.00;98138.91;1712795;83;25475;-40
2023/01/18 00:53:56;;;;;;;82.67;41.13;;;;;;;0.44;100.00;98139.39;1712677;83;26410;-39
2023/01/18 00:56:27;;;;;;;83.92;42.10;;;;;;;0.46;100.00;98130.58;1712874;83;25482;-39
2023/01/18 00:58:57;;;;;;;87.45;42.95;;;;;;;0.46;100.00;98122.59;1712732;83;27430;-39
2023/01/18 01:01:24;;;;;;;90.12;43.20;;;;;;;0.47;100.00;98114.33;1712650;83;25738;-39
2023/01/18 01:06:44;;;;;;;89.70;43.10;;;;;;;0.50;100.00;98112.95;1712625;83;25711;-38
2023/01/18 01:09:26;;;;;;;81.30;42.75;;;;;;;0.52;100.00;98112.11;1712826;83;25613;-38
2023/01/18 01:26:10;;;;;;;75.47;38.48;;;;;;;0.63;100.00;98083.42;1713708;83;27396;-38
2023/01/18 01:28:43;;;;;;;76.45;38.92;;;;;;;0.64;100.00;98083.13;1713634;83;25457;-38
2023/01/18 01:31:15;;;;;;;67.35;35.98;;;;;;;0.67;100.00;98084.42;1711290;83;25468;-38
2023/01/18 01:33:45;;;;;;;66.22;34.27;;;;;;;0.68;100.00;98085.46;1713485;83;25637;-38
2023/01/18 01:36:18;;;;;;;64.47;35.20;;;;;;;0.69;100.00;98084.36;1713425;83;25412;-38
2023/01/18 01:38:47;;;;;;;66.37;33.67;;;;;;;0.71;100.00;98089.39;1707583;83;27452;-38
2023/01/18 01:41:27;;;;;;;67.58;33.38;;;;;;;0.71;100.00;98085.39;1661459;85;25577;-38
2023/01/18 01:44:03;;;;;;;69.65;34.58;;;;;;;0.70;100.00;98073.97;1688306;84;25619;-39
2023/01/18 01:46:42;;;;;;;67.05;31.70;;;;;;;0.73;100.00;98076.56;1684901;85;26241;-39
2023/01/18 01:49:38;;;;;;;66.10;32.00;;;;;;;0.72;100.00;98073.67;1678608;85;25525;-37
2023/01/18 01:52:15;;;;;;;61.83;30.55;;;;;;;0.71;100.00;98080.85;1687785;85;27958;-37
2023/01/18 01:54:53;;;;;;;59.10;29.77;;;;;;;0.72;100.00;98082.44;1689442;85;25664;-37
2023/01/18 01:57:30;;;;;;;58.42;29.63;;;;;;;0.73;100.00;98085.36;1688293;85;25627;-39
2023/01/18 02:00:15;;;;;;;60.15;29.57;;;;;;;0.75;100.00;98086.39;1661583;85;25526;-38
2023/01/18 02:02:49;;;;;;;58.45;28.45;;;;;;;0.76;100.00;98089.83;1661688;85;25711;-38
2023/01/18 02:05:20;;;;;;;60.08;31.68;;;;;;;0.78;100.00;98098.30;1661627;85;28310;-38
2023/01/18 02:07:50;;;;;;;52.95;28.55;;;;;;;0.78;100.00;98100.96;1689416;85;25637;-38
2023/01/18 02:10:21;;;;;;;54.83;26.62;;;;;;;0.79;100.00;98102.55;1689410;85;25547;-38
2023/01/18 02:12:53;;;;;;;50.43;25.70;;;;;;;0.78;100.00;98099.63;1661270;85;26480;-39
2023/01/18 02:15:30;;;;;;;47.33;25.60;;;;;;;0.79;100.00;98102.00;1661619;85;25429;-38
2023/01/18 02:18:20;;;;;;;47.08;23.75;;;;;;;0.79;100.00;98094.56;1660293;85;27669;-38
2023/01/18 02:21:13;;;;;;;47.85;24.80;;;;;;;0.78;100.00;98092.98;1685965;85;25423;-39
2023/01/18 02:24:15;;;;;;;43.75;23.45;;;;;;;0.79;100.00;98091.91;1686196;85;25460;-38
2023/01/18 02:27:01;;;;;;;45.75;24.25;;;;;;;0.79;100.00;98087.36;1687096;85;26180;-38
2023/01/18 02:29:55;;;;;;;43.33;24.55;;;;;;;0.80;100.00;98097.45;1689622;85;25658;-38
2023/01/18 02:32:30;;;;;;;50.28;23.95;;;;;;;0.81;100.00;98099.05;1689544;85;28332;-39
2023/01/18 02:35:13;;;;;;;44.25;24.70;;;;;;;0.80;100.00;98097.45;1688448;85;25615;-39
2023/01/18 02:38:01;;;;;;;44.40;22.60;;;;;;;0.82;100.00;98100.59;1687537;85;25657;-37
2023/01/18 02:40:54;;;;;;;48.80;24.10;;;;;;;0.84;100.00;98098.45;1621427;88;25678;-37
2023/01/18 02:46:39;;;;;;;47.48;24.98;;;;;;;0.85;100.00;98098.16;1620148;88;27236;-39
2023/01/18 02:49:11;;;;;;;46.55;23.50;;;;;;;0.86;100.00;98097.61;1620009;88;25855;-38
2023/01/18 02:51:42;;;;;;;48.40;25.02;;;;;;;0.88;100.00;98088.77;1619467;88;26008;-40
2023/01/18 02:54:23;;;;;;;51.35;26.62;;;;;;;0.88;100.00;98082.12;1620125;88;25645;-38
2023/01/18 02:56:54;;;;;;;55.98;29.20;;;;;;;0.88;100.00;98084.23;1619871;88;25601;-37
2023/01/18 02:59:35;;;;;;;55.20;28.92;;;;;;;0.91;100.00;98084.97;1620118;88;27504;-37
2023/01/18 03:02:11;;;;;;;63.33;34.18;;;;;;;0.94;100.00;98082.27;1620034;88;25678;-38
2023/01/18 03:04:53;;;;;;;60.70;32.13;;;;;;;0.96;100.00;98079.30;1620124;88;25684;-37
2023/01/18 03:07:19;;;;;;;57.75;31.68;;;;;;;0.99;100.00;98080.83;1618473;88;26231;-37
2023/01/18 03:09:52;;;;;;;55.80;28.02;;;;;;;1.00;100.00;98066.41;1620099;88;25491;-38
2023/01/18 03:12:44;;;;;;;50.55;26.50;;;;;;;1.02;100.00;98061.59;1620198;88;27348;-37
2023/01/18 03:15:33;;;;;;;53.42;25.90;;;;;;;1.06;100.00;98059.11;1617081;88;25611;-37
2023/01/18 03:18:22;;;;;;;49.80;24.20;;;;;;;1.07;100.00;98048.17;1611513;88;25588;-37
2023/01/18 03:20:54;;;;;;;47.62;22.85;;;;;;;1.09;100.00;98035.34;1614311;88;27945;-39
2023/01/18 03:23:38;;;;;;;46.10;23.62;;;;;;;1.11;100.00;98043.80;1614374;88;25721;-41
2023/01/18 03:26:13;;;;;;;46.80;24.07;;;;;;;1.12;100.00;98037.92;1614412;88;27926;-38
2023/01/18 03:34:34;;;;;;;51.18;23.57;;;;;;;1.18;100.00;98011.44;1614380;88;25642;-37
2023/01/18 03:37:09;;;;;;;54.73;24.05;;;;;;;1.22;100.00;98010.28;1614375;88;25267;-38
2023/01/18 03:39:50;;;;;;;57.15;26.07;;;;;;;1.23;100.00;98007.87;1613427;88;27315;-38
2023/01/18 03:42:24;;;;;;;48.60;23.27;;;;;;;1.25;100.00;98001.69;1613788;88;26069;-38
2023/01/18 03:45:09;;;;;;;50.03;23.55;;;;;;;1.26;100.00;97992.06;1611696;89;25619;-38
2023/01/18 03:47:39;;;;;;;52.43;24.25;;;;;;;1.28;100.00;97992.55;1611574;89;25714;-38
2023/01/18 03:50:10;;;;;;;53.65;24.67;;;;;;;1.29;100.00;97978.15;1613813;88;25325;-38
2023/01/18 03:52:41;;;;;;;51.77;23.77;;;;;;;1.30;100.00;97973.05;1611585;89;27848;-39
2023/01/18 03:55:24;;;;;;;51.92;24.45;;;;;;;1.33;100.00;97966.86;1661347;85;25907;-38
2023/01/18 03:58:08;;;;;;;55.35;25.15;;;;;;;1.33;100.00;97965.00;1650991;86;25616;-38
2023/01/18 04:00:40;;;;;;;52.33;23.52;;;;;;;1.35;100.00;97966.81;1652371;86;26240;-37
2023/01/18 04:03:08;;;;;;;58.30;24.75;;;;;;;1.36;100.00;97956.38;1652559;86;25577;-39
2023/01/18 04:05:38;;;;;;;53.95;23.87;;;;;;;1.37;100.00;97941.98;1652482;86;27372;-38
2023/01/18 04:08:07;;;;;;;51.80;23.15;;;;;;;1.38;100.00;97928.11;1652497;86;26080;-37
2023/01/18 04:10:34;;;;;;;51.73;24.27;;;;;;;1.39;100.00;97927.03;1652559;86;25727;-37
2023/01/18 04:13:00;;;;;;;54.23;25.72;;;;;;;1.39;100.00;97923.03;1652357;86;25672;-37
2023/01/18 04:15:26;;;;;;;54.23;24.77;;;;;;;1.40;100.00;97911.30;1652398;86;25585;-38
2023/01/18 04:17:54;;;;;;;56.20;23.80;;;;;;;1.41;100.00;97901.64;1652404;86;27388;-38
2023/01/18 04:20:24;;;;;;;55.00;23.75;;;;;;;1.43;100.00;97881.36;1652325;86;27140;-40
2023/01/18 04:22:54;;;;;;;57.67;25.05;;;;;;;1.44;100.00;97888.27;1652367;86;25490;-38
2023/01/18 04:25:22;;;;;;;59.03;24.15;;;;;;;1.45;100.00;97889.30;1652357;86;25657;-40
2023/01/18 04:27:49;;;;;;;57.17;24.27;;;;;;;1.47;100.00;97899.09;1629647;86;25568;-40
2023/01/18 04:30:18;;;;;;;60.75;24.85;;;;;;;1.47;100.00;97903.09;1652435;86;28111;-40
2023/01/18 04:32:45;;;;;;;51.13;22.87;;;;;;;1.50;100.00;97903.04;1607583;86;25845;-39
2023/01/18 04:35:14;;;;;;;53.52;25.15;;;;;;;1.51;100.00;97907.81;1660881;86;25761;-40
2023/01/18 04:37:42;;;;;;;56.08;25.70;;;;;;;1.50;100.00;97915.03;1694535;84;26262;-39
2023/01/18 04:40:13;;;;;;;57.90;24.67;;;;;;;1.52;100.00;97920.05;1667648;85;25685;-40
2023/01/18 04:42:40;;;;;;;60.03;25.70;;;;;;;1.53;100.00;97917.61;1634085;85;28193;-40
2023/01/18 04:45:12;;;;;;;62.70;25.77;;;;;;;1.55;100.00;97915.41;1682109;85;25231;-40
2023/01/18 04:47:39;;;;;;;66.77;25.90;;;;;;;1.53;100.00;97917.05;1668066;86;25682;-39
2023/01/18 04:50:11;;;;;;;59.60;24.40;;;;;;;1.54;100.00;97922.63;1667953;86;26362;-38
2023/01/18 04:52:37;;;;;;;59.98;25.32;;;;;;;1.54;100.00;97919.97;1668043;85;25642;-37
2023/01/18 04:55:10;;;;;;;62.62;26.93;;;;;;;1.54;100.00;97913.30;1667962;85;27357;-40
2023/01/18 04:57:36;;;;;;;56.92;25.17;;;;;;;1.56;100.00;97913.00;1643097;86;25445;-38
2023/01/18 05:00:09;;;;;;;53.73;25.32;;;;;;;1.56;100.00;97911.12;1668069;85;25625;-40
2023/01/18 05:02:35;;;;;;;65.42;27.67;;;;;;;1.57;100.00;97911.37;1667988;86;25608;-38
2023/01/18 05:05:04;;;;;;;62.17;26.12;;;;;;;1.58;100.00;97908.92;1667980;86;25153;-40
2023/01/18 05:07:34;;;;;;;59.93;26.02;;;;;;;1.61;100.00;97910.98;1667924;86;27436;-39
2023/01/18 05:10:05;;;;;;;60.17;24.35;;;;;;;1.62;100.00;97909.89;1667916;85;26099;-38
2023/01/18 05:12:31;;;;;;;63.68;26.68;;;;;;;1.64;100.00;97912.26;1682146;85;25603;-37
2023/01/18 05:14:58;;;;;;;64.00;25.65;;;;;;;1.63;100.00;97909.34;1667925;85;25636;-37
2023/01/18 05:17:26;;;;;;;61.05;25.43;;;;;;;1.64;100.00;97918.92;1667999;86;25468;-37
2023/01/18 05:19:57;;;;;;;57.55;24.20;;;;;;;1.65;100.00;97912.48;1641741;86;27508;-38
2023/01/18 05:22:24;;;;;;;55.55;22.95;;;;;;;1.64;100.00;97916.25;1667938;86;25569;-38
2023/01/18 05:24:52;;;;;;;55.10;24.25;;;;;;;1.67;100.00;97916.98;1668001;86;25597;-38
2023/01/18 05:27:19;;;;;;;61.00;24.00;;;;;;;1.66;100.00;97917.50;1667998;85;25590;-39
2023/01/18 05:29:47;;;;;;;66.90;26.33;;;;;;;1.67;100.00;97914.31;1668251;85;25617;-38
2023/01/18 05:32:14;;;;;;;56.75;23.65;;;;;;;1.69;100.00;97910.78;1667495;86;27998;-39
2023/01/18 05:34:43;;;;;;;52.98;23.35;;;;;;;1.70;100.00;97910.23;1668083;86;25613;-39
2023/01/18 05:37:11;;;;;;;62.17;23.40;;;;;;;1.69;100.00;97910.78;1676070;85;25618;-40
2023/01/18 05:39:37;;;;;;;61.50;24.70;;;;;;;1.68;100.00;97907.31;1681862;85;25635;-39
2023/01/18 05:42:05;;;;;;;55.85;23.07;;;;;;;1.68;100.00;97893.99;1652272;85;25648;-38
2023/01/18 05:44:32;;;;;;;54.90;21.93;;;;;;;1.68;100.00;97891.33;1675957;85;27383;-39
2023/01/18 05:47:00;;;;;;;50.85;22.50;;;;;;;1.68;100.00;97881.22;1666467;86;25577;-39
2023/01/18 05:49:30;;;;;;;48.17;21.93;;;;;;;1.68;100.00;97874.56;1652401;85;25638;-39
2023/01/18 05:51:56;;;;;;;56.37;22.37;;;;;;;1.67;100.00;97871.12;1675995;85;25909;-39
2023/01/18 05:54:23;;;;;;;48.02;21.80;;;;;;;1.66;100.00;97857.55;1676044;85;25603;-40
2023/01/18 05:56:49;;;;;;;51.37;21.70;;;;;;;1.67;100.00;97850.35;1676048;85;27302;-40
2023/01/18 05:59:15;;;;;;;43.50;20.05;;;;;;;1.66;100.00;97846.88;1666935;85;25499;-40
2023/01/18 06:01:41;;;;;;;45.05;19.62;;;;;;;1.66;100.00;97832.22;1675902;85;25697;-39
2023/01/18 06:04:08;;;;;;;43.98;19.07;;;;;;;1.65;100.00;97820.54;1666394;86;25616;-39
2023/01/18 06:06:34;;;;;;;43.35;19.02;;;;;;;1.63;100.00;97806.75;1675923;85;25458;-39
2023/01/18 06:09:05;;;;;;;42.45;19.12;;;;;;;1.63;100.00;97811.52;1642116;86;29656;-38
2023/01/18 06:11:31;;;;;;;40.05;18.37;;;;;;;1.62;100.00;97800.64;1675764;85;25503;-39
2023/01/18 06:13:59;;;;;;;43.95;17.77;;;;;;;1.63;100.00;97788.09;1660830;84;25450;-39
2023/01/18 06:16:26;;;;;;;41.05;18.02;;;;;;;1.62;100.00;97787.88;1676631;85;26227;-40
2023/01/18 06:18:52;;;;;;;46.30;21.52;;;;;;;1.61;100.00;97775.08;1676709;85;25414;-39
2023/01/18 06:21:18;;;;;;;40.40;18.35;;;;;;;1.60;100.00;97789.52;1676662;85;27496;-39
2023/01/18 06:23:47;;;;;;;38.05;16.77;;;;;;;1.60;100.00;97788.71;1676527;85;25430;-38
2023/01/18 06:26:13;;;;;;;34.20;15.03;;;;;;;1.57;100.00;97790.69;1676696;85;25549;-38
2023/01/18 06:28:40;;;;;;;38.50;15.98;;;;;;;1.57;100.00;97794.12;1676564;85;27856;-41
2023/01/18 06:31:07;;;;;;;36.10;15.13;;;;;;;1.58;100.00;97793.02;1649622;85;25756;-40
2023/01/18 06:33:34;;;;;;;36.38;14.90;;;;;;;1.56;100.00;97785.11;1676514;85;27550;-39
2023/01/18 06:36:04;;;;;;;33.98;16.32;;;;;;;1.55;100.00;97784.86;1676486;85;25486;-39
2023/01/18 06:38:31;;;;;;;31.27;13.72;;;;;;;1.55;100.00;97781.67;1676611;85;25415;-39
2023/01/18 06:41:02;;;;;;;25.45;12.15;;;;;;;1.56;100.00;97777.89;1668665;85;26386;-39
2023/01/18 06:43:28;;;;;;;26.93;12.50;;;;;;;1.53;100.00;97769.18;1674621;85;25593;-38
2023/01/18 06:45:58;;;;;;;29.20;13.32;;;;;;;1.54;100.00;97766.77;1674660;85;27871;-38
2023/01/18 06:48:28;;;;;;;28.50;13.40;;;;;;;1.53;100.00;97753.20;1674446;85;25728;-39
2023/01/18 06:50:57;;;;;;;28.25;12.63;;;;;;;1.52;100.00;97750.31;1674603;85;25585;-39
2023/01/18 06:53:26;;;;;;;25.70;13.20;;;;;;;1.52;100.00;97742.88;1673365;85;25691;-39
2023/01/18 06:55:56;;;;;;;27.05;12.35;;;;;;;1.48;100.00;97727.50;1643835;85;25732;-40
2023/01/18 06:58:29;;;;;;;21.23;9.80;;;;;;;1.48;100.00;97726.17;1673954;85;27388;-39
2023/01/18 07:00:59;;;;;;;21.95;11.43;;;;;;;1.47;100.00;97737.14;1644891;85;25678;-41
2023/01/18 07:03:31;;;;;;;28.00;12.25;;;;;;;1.47;100.00;97746.46;1674474;85;25616;-39
2023/01/18 07:06:04;;;;;;;20.05;10.13;;;;;;;1.46;100.00;97735.56;1674520;85;25632;-39
2023/01/18 07:08:34;;;;;;;22.55;10.85;;;;;;;1.46;100.00;97739.03;1674593;85;25630;-39
2023/01/18 07:11:09;;;;;;;24.23;11.93;;;;;;;1.44;100.00;97737.75;1674586;85;27561;-39
2023/01/18 07:13:39;;;;;;;23.20;10.88;;;;;;;1.46;100.00;97732.89;1673755;85;25514;-39
2023/01/18 07:16:16;;;;;;;23.20;10.90;;;;;;;1.45;100.00;97721.46;1645385;85;25523;-39
2023/01/18 07:18:43;;;;;;;19.37;9.28;;;;;;;1.47;100.00;97734.48;1673066;85;26486;-39
2023/01/18 07:21:14;;;;;;;28.75;12.70;;;;;;;1.50;100.00;97748.52;1674621;85;25510;-39
2023/01/18 07:23:44;;;;;;;21.20;10.68;;;;;;;1.51;100.00;97759.39;1674598;85;27468;-39
2023/01/18 07:26:17;;;;;;;18.07;9.03;;;;;;;1.52;100.00;97764.19;1674484;85;25711;-40
2023/01/18 07:28:47;;;;;;;20.48;9.20;;;;;;;1.53;100.00;97771.07;1674585;85;25214;-39
2023/01/18 07:31:19;;;;;;;18.27;8.63;;;;;;;1.54;100.00;97771.31;1674511;85;25684;-39
2023/01/18 07:33:47;;;;;;;15.10;7.67;;;;;;;1.57;100.00;97772.03;1674607;85;25662;-40
2023/01/18 07:36:14;;;;;;;15.93;8.63;;;;;;;1.59;100.00;97764.51;1622930;85;26849;-39
2023/01/18 07:38:44;;;;;;;16.93;9.00;;;;;;;1.61;100.00;97759.64;1674512;85;25238;-39
2023/01/18 07:41:16;;;;;;;15.25;7.67;;;;;;;1.63;100.00;97741.46;1674006;85;26022;-40
2023/01/18 07:43:45;;;;;;;13.20;7.35;;;;;;;1.65;100.00;97737.93;1673581;85;25673;-39
2023/01/18 07:46:19;;;;;;;12.90;6.62;;;;;;;1.65;100.00;97743.27;1647713;85;25618;-41
2023/01/18 07:48:48;;;;;;;14.50;7.72;;;;;;;1.67;100.00;97748.53;1673612;85;27356;-40
2023/01/18 07:51:15;;;;;;;13.32;7.03;;;;;;;1.71;100.00;97743.35;1673481;85;25964;-40
2023/01/18 07:53:45;;;;;;;12.63;6.78;;;;;;;1.73;100.00;97739.82;1648220;85;25278;-40
2023/01/18 07:56:17;;;;;;;15.28;7.03;;;;;;;1.75;100.00;97734.18;1673602;85;25825;-39
2023/01/18 07:58:48;;;;;;;14.95;7.87;;;;;;;1.76;100.00;97741.09;1673775;85;25616;-39
2023/01/18 08:01:19;;;;;;;16.02;9.30;;;;;;;1.77;100.00;97730.13;1673670;85;28364;-40
2023/01/18 08:03:48;;;;;;;14.70;7.92;;;;;;;1.80;100.00;97724.70;1673662;85;25422;-41
2023/01/18 08:06:26;;;;;;;14.35;8.38;;;;;;;1.82;100.00;97728.63;1673620;85;25659;-40
2023/01/18 08:08:56;;;;;;;15.13;9.18;;;;;;;1.86;100.00;97732.23;1673767;85;25658;-40
2023/01/18 08:11:31;;;;;;;12.23;7.37;;;;;;;1.90;100.00;97731.05;1673771;85;25224;-39
2023/01/18 08:13:57;;;;;;;12.82;7.65;;;;;;;1.94;100.00;97727.20;1673718;85;28076;-39
2023/01/18 08:16:23;;;;;;;10.65;5.55;;;;;;;1.97;100.00;97724.69;1648241;85;27202;-39
2023/01/18 08:18:50;;;;;;;9.38;5.55;;;;;;;2.00;100.00;97721.40;1673649;85;25547;-40
2023/01/18 08:21:17;;;;;;;10.53;6.10;;;;;;;2.03;100.00;97725.33;1673623;85;25704;-40
2023/01/18 08:23:46;;;;;;;9.70;6.17;;;;;;;2.06;100.00;97728.70;1673748;85;25245;-40
2023/01/18 08:26:19;;;;;;;10.58;6.22;;;;;;;2.07;100.00;97744.15;1673634;85;27555;-40
2023/01/18 08:28:51;;;;;;;12.40;5.42;;;;;;;2.08;100.00;97738.50;1673621;85;25701;-39
2023/01/18 08:31:23;;;;;;;8.20;4.78;;;;;;;2.09;100.00;97731.28;1673719;85;25467;-40
2023/01/18 08:33:49;;;;;;;7.75;4.72;;;;;;;2.08;100.00;97717.70;1673584;85;26511;-40
2023/01/18 08:36:26;;;;;;;7.35;5.60;;;;;;;2.10;100.00;97712.30;1673638;85;25464;-40
2023/01/18 08:38:58;;;;;;;7.42;4.47;;;;;;;2.13;100.00;97702.34;1673730;85;27535;-40
2023/01/18 08:41:29;;;;;;;9.00;4.90;;;;;;;2.17;100.00;97707.82;1645070;86;26162;-40
2023/01/18 08:44:00;;;;;;;7.10;4.67;;;;;;;2.18;100.00;97700.84;1666616;86;25421;-41
2023/01/18 08:46:32;;;;;;;8.03;4.90;;;;;;;2.20;100.00;97690.63;1666567;86;25601;-40
2023/01/18 08:48:58;;;;;;;7.25;4.60;;;;;;;2.22;100.00;97688.42;1666689;85;25479;-39
2023/01/18 08:51:27;;;;;;;8.20;5.12;;;;;;;2.22;100.00;97683.09;1666731;85;27335;-41
2023/01/18 08:53:58;;;;;;;8.15;4.28;;;;;;;2.25;100.00;97696.36;1666502;86;25716;-39
2023/01/18 08:56:29;;;;;;;6.87;4.08;;;;;;;2.27;100.00;97693.38;1666613;86;25682;-39
2023/01/18 08:59:01;;;;;;;10.75;4.33;;;;;;;2.29;100.00;97703.17;1638461;86;25611;-40
2023/01/18 09:01:31;;;;;;;7.47;4.03;;;;;;;2.27;100.00;97710.16;1666561;85;25589;-40
2023/01/18 09:03:57;;;;;;;8.18;4.12;;;;;;;2.28;100.00;97720.27;1666516;86;27322;-39
2023/01/18 09:06:30;;;;;;;8.93;5.22;;;;;;;2.26;100.00;97718.47;1666486;85;25698;-39
2023/01/18 09:09:04;;;;;;;6.30;3.98;;;;;;;2.25;100.00;97720.36;1666585;85;25563;-39
2023/01/18 09:11:32;;;;;;;5.28;3.90;;;;;;;2.22;100.00;97717.77;1666655;85;25650;-40
2023/01/18 09:13:58;;;;;;;6.58;3.77;;;;;;;2.20;100.00;97717.86;1666627;86;25644;-39
2023/01/18 09:16:24;;;;;;;7.17;3.75;;;;;;;2.20;100.00;97711.97;1666640;85;27338;-39
2023/01/18 09:18:51;;;;;;;5.97;4.40;;;;;;;2.22;100.00;97714.32;1666348;86;25761;-40
2023/01/18 09:21:21;;;;;;;6.53;4.20;;;;;;;2.20;100.00;97709.86;1665763;86;25730;-39
2023/01/18 09:23:51;;;;;;;8.00;4.27;;;;;;;2.19;100.00;97706.39;1666779;84;25702;-40
2023/01/18 09:26:19;;;;;;;7.70;4.72;;;;;;;2.21;100.00;97711.41;1666547;85;25589;-41
2023/01/18 09:28:53;;;;;;;13.28;8.05;;;;;;;2.22;100.00;97707.09;1666601;86;27236;-40
2023/01/18 09:31:25;;;;;;;6.15;4.30;;;;;;;2.25;100.00;97692.36;1666497;85;25792;-40
2023/01/18 09:33:56;;;;;;;5.95;4.42;;;;;;;2.26;100.00;97687.23;1666531;86;25506;-40
2023/01/18 09:36:27;;;;;;;4.40;3.72;;;;;;;2.25;100.00;97676.35;1666583;86;26770;-40
2023/01/18 09:39:00;;;;;;;6.00;4.42;;;;;;;2.26;100.00;97668.56;1666538;86;25586;-40
2023/01/18 09:41:45;;;;;;;7.37;5.00;;;;;;;2.27;100.00;97656.80;1668886;85;27367;-40
2023/01/18 09:44:29;;;;;;;5.80;4.10;;;;;;;2.28;100.00;97646.91;1673233;85;25786;-40
2023/01/18 09:47:16;;;;;;;6.90;4.75;;;;;;;2.29;100.00;97645.27;1667741;85;25843;-40
2023/01/18 09:50:01;;;;;;;6.08;4.40;;;;;;;2.29;100.00;97652.48;1673889;85;25629;-40
2023/01/18 09:53:03;;;;;;;5.00;3.90;;;;;;;2.28;100.00;97650.35;1666058;85;25887;-40
2023/01/18 09:55:55;;;;;;;4.90;3.85;;;;;;;2.28;100.00;97635.68;1674561;85;27410;-41
2023/01/18 09:58:45;;;;;;;5.67;4.22;;;;;;;2.27;100.00;97636.03;1674643;85;25689;-39
2023/01/18 10:01:20;;;;;;;4.95;4.20;;;;;;;2.23;100.00;97631.86;1674608;85;25386;-41
2023/01/18 10:04:01;;;;;;;6.35;4.95;;;;;;;2.24;100.00;97644.10;1674518;85;25627;-39
2023/01/18 10:06:57;;;;;;;13.20;7.47;;;;;;;2.23;100.00;97647.33;1674613;85;25646;-40
2023/01/18 10:09:32;;;;;;;6.85;5.22;;;;;;;2.24;100.00;97651.55;1673521;85;28011;-39
2023/01/18 10:12:16;;;;;;;5.92;4.60;;;;;;;2.24;100.00;97654.77;1674521;85;25802;-40
2023/01/18 10:14:56;;;;;;;7.15;4.80;;;;;;;2.23;100.00;97651.86;1674646;85;25214;-39
2023/01/18 10:17:28;;;;;;;6.12;4.53;;;;;;;2.22;100.00;97641.75;1674739;85;25618;-39
2023/01/18 10:19:58;;;;;;;5.72;4.92;;;;;;;2.22;100.00;97635.08;1672197;85;25505;-39
2023/01/18 10:22:33;;;;;;;5.92;4.62;;;;;;;2.23;100.00;97635.86;1674693;85;27398;-41
2023/01/18 10:25:33;;;;;;;6.47;4.83;;;;;;;2.21;100.00;97644.73;1674674;85;25869;-41
2023/01/18 10:28:28;;;;;;;5.50;4.85;;;;;;;2.21;100.00;97654.06;1674758;85;25246;-40
2023/01/18 10:31:35;;;;;;;8.35;6.03;;;;;;;2.21;100.00;97652.73;1674754;85;25724;-41
2023/01/18 10:34:09;;;;;;;22.55;14.03;;;;;;;2.19;100.00;97657.05;1674683;85;25617;-40
2023/01/18 10:36:43;;;;;;;12.30;7.60;;;;;;;2.19;100.00;97652.27;1643992;85;27540;-40
2023/01/18 10:39:33;;;;;;;7.80;5.40;;;;;;;2.18;100.00;97646.70;1673692;85;25820;-40
2023/01/18 10:42:05;;;;;;;8.55;5.85;;;;;;;2.17;100.00;97637.92;1670518;84;25955;-40
2023/01/18 10:44:31;;;;;;;6.35;5.10;;;;;;;2.18;100.00;97613.36;1701264;84;25922;-39
2023/01/18 10:47:00;;;;;;;6.25;5.37;;;;;;;2.17;100.00;97617.92;1701409;84;25323;-40
2023/01/18 10:49:43;;;;;;;6.58;5.20;;;;;;;2.18;100.00;97610.16;1701701;84;27453;-38
2023/01/18 10:52:32;;;;;;;7.75;5.20;;;;;;;2.19;100.00;97619.70;1676856;84;25382;-41
2023/01/18 10:55:07;;;;;;;;;;;;;;;2.19;100.00;97620.27;1705305;84;25165;-40
2023/01/18 10:57:45;;;;;;;7.47;5.67;;;;;;;2.21;100.00;97614.06;1702715;84;25748;-39
2023/01/18 11:00:33;;;;;;;7.80;5.30;;;;;;;2.19;100.00;97610.38;1677940;84;25438;-40
2023/01/18 11:03:03;;;;;;;7.08;5.47;;;;;;;2.20;100.00;97595.95;1678305;84;27359;-40
2023/01/18 11:05:36;;;;;;;6.70;5.17;;;;;;;2.21;100.00;97585.52;1702522;84;25636;-39
2023/01/18 11:08:33;;;;;;;8.68;5.78;;;;;;;2.22;100.00;97583.07;1702667;84;25557;-40
2023/01/18 11:11:06;;;;;;;8.30;6.08;;;;;;;2.23;100.00;97580.65;1702920;84;25664;-39
2023/01/18 11:13:46;;;;;;;11.20;6.53;;;;;;;2.28;100.00;97576.23;1655686;84;25449;-40
2023/01/18 11:16:21;;;;;;;9.25;6.62;;;;;;;2.27;100.00;97582.12;1705115;84;27499;-40
2023/01/18 11:19:02;;;;;;;6.40;5.75;;;;;;;2.30;100.00;97580.16;1704869;84;25592;-40
2023/01/18 11:21:47;;;;;;;9.73;6.60;;;;;;;2.32;100.00;97566.50;1704983;84;25549;-38
2023/01/18 11:24:25;;;;;;;8.48;6.50;;;;;;;2.34;100.00;97561.62;1704991;84;25699;-40
2023/01/18 11:27:03;;;;;;;9.78;6.92;;;;;;;2.35;100.00;97559.16;1705044;84;25661;-39
2023/01/18 11:29:41;;;;;;;9.18;6.37;;;;;;;2.35;100.00;97557.83;1705000;84;27356;-39
2023/01/18 11:32:16;;;;;;;7.25;6.17;;;;;;;2.37;100.00;97568.98;1703110;84;25350;-39
2023/01/18 11:34:48;;;;;;;12.37;7.55;;;;;;;2.38;100.00;97576.67;1677741;84;25589;-39
2023/01/18 11:37:37;;;;;;;8.33;6.37;;;;;;;2.39;100.00;97586.78;1705121;84;27716;-40
2023/01/18 11:40:33;;;;;;;8.98;6.47;;;;;;;2.39;100.00;97584.11;1705148;84;25595;-39
2023/01/18 11:43:21;;;;;;;8.48;6.70;;;;;;;2.40;100.00;97581.66;1694510;83;27841;-40
2023/01/18 11:45:58;;;;;;;8.68;6.72;;;;;;;2.40;100.00;97586.46;1689313;85;25813;-39
2023/01/18 11:48:33;;;;;;;8.68;6.67;;;;;;;2.39;100.00;97591.55;1683253;85;25415;-39
2023/01/18 11:51:15;;;;;;;8.93;6.85;;;;;;;2.39;100.00;97590.78;1685613;85;25631;-40
2023/01/18 11:54:03;;;;;;;9.93;6.22;;;;;;;2.41;100.00;97601.35;1689037;85;25238;-39
2023/01/18 11:56:46;;;;;;;10.68;7.97;;;;;;;2.39;100.00;97602.23;1688960;85;28403;-40
2023/01/18 11:59:18;;;;;;;10.08;6.87;;;;;;;2.36;100.00;97604.75;1690035;85;25729;-40
2023/01/18 12:02:08;;;;;;;29.12;19.82;;;;;;;2.33;100.00;97596.05;1688903;85;25677;-39
2023/01/18 12:04:50;;;;;;;77.05;49.13;;;;;;;2.34;100.00;97597.63;1688809;85;25622;-39
2023/01/18 12:07:37;;;;;;;11.97;8.38;;;;;;;2.36;100.00;97590.86;1661005;85;25613;-40
2023/01/18 12:10:22;;;;;;;18.85;12.03;;;;;;;2.39;100.00;97590.22;1645545;87;27544;-40
2023/01/18 12:13:17;;;;;;;18.12;10.95;;;;;;;2.41;100.00;97578.67;1595783;88;25604;-40
2023/01/18 12:15:55;;;;;;;9.65;7.33;;;;;;;2.41;100.00;97581.90;1645608;87;25282;-40
2023/01/18 12:18:56;;;;;;;9.30;6.00;;;;;;;2.40;100.00;97579.80;1644998;87;26199;-40